Time;durP1;ratioP1;P1;durP2;ratioP2;P2;SDS_P1;SDS_P2;PMS_P1;PMS_P2;Temp;Humidity;BMP_temperature;BMP_pressure;BME280_temperature;BME280_humidity;BME280_pressure;Samples;Min_cycle;Max_cycle;Signal;HPM_P1;HPM_P2
2023/12/18 00:00:28;;;;;;;200.27;58.70;;;;;;;;;;4985137;28;20442;-44
2023/12/18 00:02:54;;;;;;;200.50;58.40;;;;;;;;;;4984954;28;20427;-44
2023/12/18 00:05:20;;;;;;;196.50;58.20;;;;;;;;;;4979319;28;20443;-44
2023/12/18 00:07:46;;;;;;;196.27;58.17;;;;;;;;;;4985676;28;20415;-45
2023/12/18 00:10:12;;;;;;;199.67;58.87;;;;;;;;;;4983267;28;20206;-44
2023/12/18 00:12:38;;;;;;;202.17;59.43;;;;;;;;;;4984043;28;20416;-45
2023/12/18 00:15:04;;;;;;;194.50;59.57;;;;;;;;;;4983785;28;20449;-46
2023/12/18 00:17:30;;;;;;;197.63;58.20;;;;;;;;;;4983352;28;20428;-46
2023/12/18 00:19:56;;;;;;;199.33;60.07;;;;;;;;;;4983088;28;20207;-45
2023/12/18 00:22:22;;;;;;;200.37;59.27;;;;;;;;;;4982027;28;20471;-45
2023/12/18 00:24:48;;;;;;;199.40;60.67;;;;;;;;;;4987560;28;20540;-45
2023/12/18 00:27:14;;;;;;;200.48;60.55;;;;;;;;;;4981948;28;20175;-44
2023/12/18 00:29:40;;;;;;;197.68;59.70;;;;;;;;;;4981506;28;20180;-46
2023/12/18 00:32:06;;;;;;;196.30;59.07;;;;;;;;;;4983184;28;20183;-44
2023/12/18 00:34:32;;;;;;;198.52;61.28;;;;;;;;;;4982057;28;20490;-46
2023/12/18 00:36:58;;;;;;;192.73;59.53;;;;;;;;;;4982487;28;20240;-45
2023/12/18 00:39:24;;;;;;;198.40;61.00;;;;;;;;;;4986835;28;20771;-45
2023/12/18 00:41:51;;;;;;;191.33;58.73;;;;;;;;;;4985850;28;21056;-47
2023/12/18 00:44:17;;;;;;;192.07;58.50;;;;;;;;;;4972162;28;20933;-45
2023/12/18 00:46:43;;;;;;;188.10;58.30;;;;;;;;;;4979351;28;20272;-45
2023/12/18 00:49:09;;;;;;;172.30;56.75;;;;;;;;;;4983531;28;20411;-44
2023/12/18 00:51:35;;;;;;;188.37;58.80;;;;;;;;;;4985047;28;20614;-45
2023/12/18 00:54:01;;;;;;;190.53;58.03;;;;;;;;;;4983160;28;20423;-45
2023/12/18 00:56:27;;;;;;;190.00;60.80;;;;;;;;;;4984241;28;20450;-45
2023/12/18 00:58:53;;;;;;;191.20;61.15;;;;;;;;;;4984193;28;20954;-45
2023/12/18 01:01:19;;;;;;;189.43;60.78;;;;;;;;;;4978215;28;20204;-44
2023/12/18 01:03:45;;;;;;;184.80;58.23;;;;;;;;;;4984754;28;20182;-44
2023/12/18 01:06:11;;;;;;;187.43;60.93;;;;;;;;;;4982915;28;20509;-45
2023/12/18 01:08:37;;;;;;;180.45;63.30;;;;;;;;;;4983050;28;20493;-44
2023/12/18 01:11:03;;;;;;;177.47;58.67;;;;;;;;;;4982992;28;20199;-44
2023/12/18 01:13:30;;;;;;;178.90;58.90;;;;;;;;;;4982837;28;20422;-44
2023/12/18 01:15:56;;;;;;;173.00;59.55;;;;;;;;;;4982670;28;20708;-46
2023/12/18 01:18:23;;;;;;;172.10;63.88;;;;;;;;;;4976902;28;20183;-45
2023/12/18 01:20:49;;;;;;;167.75;56.97;;;;;;;;;;4984173;28;20230;-45
2023/12/18 01:23:15;;;;;;;168.00;59.20;;;;;;;;;;4981234;28;20175;-45
2023/12/18 01:25:41;;;;;;;168.68;59.00;;;;;;;;;;4981031;28;20418;-46
2023/12/18 01:28:07;;;;;;;162.35;57.45;;;;;;;;;;4982606;28;20188;-46
2023/12/18 01:30:33;;;;;;;159.77;56.40;;;;;;;;;;4980657;28;20186;-45
2023/12/18 01:32:59;;;;;;;165.33;56.63;;;;;;;;;;4981349;28;20955;-45
2023/12/18 01:35:25;;;;;;;163.70;57.70;;;;;;;;;;4980952;28;20996;-45
2023/12/18 01:37:51;;;;;;;166.52;57.28;;;;;;;;;;4985896;28;20401;-45
2023/12/18 01:40:18;;;;;;;177.37;59.30;;;;;;;;;;4971318;28;20737;-45
2023/12/18 01:42:44;;;;;;;169.70;59.05;;;;;;;;;;4979676;28;20449;-44
2023/12/18 01:45:10;;;;;;;124.82;46.35;;;;;;;;;;4980732;28;20686;-44
2023/12/18 01:47:37;;;;;;;127.50;48.53;;;;;;;;;;4980724;28;20175;-44
2023/12/18 01:50:03;;;;;;;168.52;57.45;;;;;;;;;;4981707;28;20641;-45
2023/12/18 01:52:29;;;;;;;169.27;58.15;;;;;;;;;;4984098;28;20181;-44
2023/12/18 01:54:56;;;;;;;175.57;59.33;;;;;;;;;;4984008;28;20202;-44
2023/12/18 01:57:23;;;;;;;171.23;58.35;;;;;;;;;;4978493;28;20179;-44
2023/12/18 01:59:50;;;;;;;173.43;59.40;;;;;;;;;;4976119;28;20180;-44
2023/12/18 02:02:16;;;;;;;175.45;58.67;;;;;;;;;;4983084;28;20212;-44
2023/12/18 02:04:42;;;;;;;180.43;60.58;;;;;;;;;;4981748;28;20169;-44
2023/12/18 02:07:08;;;;;;;179.55;57.95;;;;;;;;;;4982496;28;20171;-44
2023/12/18 02:09:35;;;;;;;179.10;58.60;;;;;;;;;;4984342;28;20180;-44
2023/12/18 02:12:01;;;;;;;178.75;61.25;;;;;;;;;;4985997;28;20266;-44
2023/12/18 02:14:27;;;;;;;177.07;59.38;;;;;;;;;;4981090;28;20598;-44
2023/12/18 02:16:53;;;;;;;137.83;62.00;;;;;;;;;;4987656;28;20224;-44
2023/12/18 02:19:26;;;;;;;130.27;44.17;;;;;;;;;;4984525;28;20810;-44
2023/12/18 02:21:52;;;;;;;62.60;31.85;;;;;;;;;;4982746;28;20525;-44
2023/12/18 02:24:19;;;;;;;69.50;40.70;;;;;;;;;;4976216;28;20193;-44
2023/12/18 02:26:45;;;;;;;51.30;46.42;;;;;;;;;;4984017;28;20202;-44
2023/12/18 02:29:11;;;;;;;60.25;49.22;;;;;;;;;;4983944;28;20207;-44
2023/12/18 02:31:37;;;;;;;55.35;42.60;;;;;;;;;;4983854;28;20578;-44
2023/12/18 02:34:03;;;;;;;140.90;52.17;;;;;;;;;;4989065;28;20188;-44
2023/12/18 02:36:29;;;;;;;80.82;56.55;;;;;;;;;;4984285;28;20762;-44
2023/12/18 02:38:55;;;;;;;156.80;57.80;;;;;;;;;;4980755;28;20689;-44
2023/12/18 02:41:21;;;;;;;168.70;60.67;;;;;;;;;;4983224;28;20344;-44
2023/12/18 02:43:47;;;;;;;127.73;50.43;;;;;;;;;;4983699;28;20903;-44
2023/12/18 02:46:14;;;;;;;164.87;55.90;;;;;;;;;;4986474;28;20499;-44
2023/12/18 02:48:40;;;;;;;49.28;35.90;;;;;;;;;;4985418;28;20818;-44
2023/12/18 02:51:06;;;;;;;62.30;43.50;;;;;;;;;;4987186;28;20208;-44
2023/12/18 02:53:32;;;;;;;102.03;56.75;;;;;;;;;;4982851;28;20424;-44
2023/12/18 02:55:58;;;;;;;85.45;51.10;;;;;;;;;;4979033;28;20185;-44
2023/12/18 02:58:24;;;;;;;110.83;60.10;;;;;;;;;;4986513;28;20181;-44
2023/12/18 03:00:50;;;;;;;87.93;48.78;;;;;;;;;;4984077;28;20448;-44
2023/12/18 03:03:17;;;;;;;92.28;46.95;;;;;;;;;;4986514;28;20176;-44
2023/12/18 03:05:43;;;;;;;114.97;56.35;;;;;;;;;;4983558;28;20658;-44
2023/12/18 03:08:09;;;;;;;65.72;49.22;;;;;;;;;;4985256;28;20188;-44
2023/12/18 03:10:35;;;;;;;108.80;53.00;;;;;;;;;;4981075;28;20198;-44
2023/12/18 03:13:01;;;;;;;26.17;24.37;;;;;;;;;;4985524;28;20415;-44
2023/12/18 03:15:27;;;;;;;33.92;28.92;;;;;;;;;;4985578;28;20403;-44
2023/12/18 03:17:53;;;;;;;47.35;42.88;;;;;;;;;;4975031;28;20166;-44
2023/12/18 03:20:19;;;;;;;42.53;38.80;;;;;;;;;;4956989;28;20197;-44
2023/12/18 03:22:45;;;;;;;44.90;40.83;;;;;;;;;;4968230;28;20476;-44
2023/12/18 03:25:11;;;;;;;42.03;36.83;;;;;;;;;;4966204;28;20410;-44
2023/12/18 03:27:37;;;;;;;99.47;48.17;;;;;;;;;;4960387;28;20509;-44
2023/12/18 03:30:03;;;;;;;22.90;20.57;;;;;;;;;;4974006;28;20421;-44
2023/12/18 03:32:29;;;;;;;99.25;48.72;;;;;;;;;;4956376;28;20434;-44
2023/12/18 03:34:55;;;;;;;116.07;49.57;;;;;;;;;;4982865;28;20193;-44
2023/12/18 03:37:21;;;;;;;133.93;53.47;;;;;;;;;;4983459;28;20421;-44
2023/12/18 03:39:47;;;;;;;69.15;45.47;;;;;;;;;;4984536;28;20177;-44
2023/12/18 03:42:13;;;;;;;76.43;47.73;;;;;;;;;;4983022;28;20673;-44
2023/12/18 03:44:42;;;;;;;57.60;36.80;;;;;;;;;;4985157;28;20439;-44
2023/12/18 03:47:08;;;;;;;97.25;47.50;;;;;;;;;;4980685;28;20436;-44
2023/12/18 03:49:34;;;;;;;118.60;50.30;;;;;;;;;;4981220;28;20178;-44
2023/12/18 03:52:00;;;;;;;133.83;54.37;;;;;;;;;;4987412;28;20408;-44
2023/12/18 03:54:26;;;;;;;144.18;52.20;;;;;;;;;;4985756;28;20412;-43
2023/12/18 03:56:52;;;;;;;132.17;50.90;;;;;;;;;;4983928;28;20264;-44
2023/12/18 03:59:17;;;;;;;142.07;53.47;;;;;;;;;;4986507;28;20421;-44
2023/12/18 04:01:43;;;;;;;152.17;54.27;;;;;;;;;;4983664;28;20483;-45
2023/12/18 04:04:10;;;;;;;151.52;54.58;;;;;;;;;;4978897;28;20409;-44
2023/12/18 04:06:36;;;;;;;166.23;54.13;;;;;;;;;;4985447;28;20191;-44
2023/12/18 04:09:03;;;;;;;164.57;55.88;;;;;;;;;;4983463;28;20300;-44
2023/12/18 04:11:29;;;;;;;162.07;57.25;;;;;;;;;;4984937;28;20220;-44
2023/12/18 04:13:55;;;;;;;144.70;52.47;;;;;;;;;;4982581;28;20329;-44
2023/12/18 04:16:21;;;;;;;176.33;53.90;;;;;;;;;;4984562;28;20472;-44
2023/12/18 04:18:49;;;;;;;177.30;54.57;;;;;;;;;;4982441;28;20420;-44
2023/12/18 04:21:15;;;;;;;167.43;52.60;;;;;;;;;;4981953;28;20910;-44
2023/12/18 04:23:41;;;;;;;141.00;49.50;;;;;;;;;;4986741;28;20260;-43
2023/12/18 04:26:09;;;;;;;182.87;54.50;;;;;;;;;;4981705;28;20413;-44
2023/12/18 04:28:35;;;;;;;191.73;58.05;;;;;;;;;;4982137;28;20417;-44
2023/12/18 04:31:01;;;;;;;192.38;56.15;;;;;;;;;;4982611;28;20294;-43
2023/12/18 04:33:27;;;;;;;192.87;56.57;;;;;;;;;;4981870;28;20260;-44
2023/12/18 04:35:52;;;;;;;192.47;54.93;;;;;;;;;;4981567;28;20948;-44
2023/12/18 04:38:18;;;;;;;192.53;56.33;;;;;;;;;;4987708;28;20898;-44
2023/12/18 04:40:44;;;;;;;193.30;55.60;;;;;;;;;;4985088;28;20960;-44
2023/12/18 04:43:10;;;;;;;190.10;56.13;;;;;;;;;;4979896;28;20874;-44
2023/12/18 04:45:36;;;;;;;190.00;54.67;;;;;;;;;;4980408;28;20174;-44
2023/12/18 04:48:02;;;;;;;191.53;56.27;;;;;;;;;;4982726;28;20413;-44
2023/12/18 04:50:28;;;;;;;186.93;55.05;;;;;;;;;;4984351;28;20507;-44
2023/12/18 04:52:54;;;;;;;185.67;54.53;;;;;;;;;;4982974;28;20256;-44
2023/12/18 04:55:20;;;;;;;183.37;53.90;;;;;;;;;;4985710;28;20417;-44
2023/12/18 04:57:46;;;;;;;186.43;55.90;;;;;;;;;;4983625;28;20412;-43
2023/12/18 05:00:12;;;;;;;180.03;53.40;;;;;;;;;;4978043;28;20433;-44
2023/12/18 05:02:38;;;;;;;181.90;53.95;;;;;;;;;;4984322;28;20460;-44
2023/12/18 05:05:04;;;;;;;169.32;52.53;;;;;;;;;;4982715;28;20260;-44
2023/12/18 05:07:30;;;;;;;176.73;52.00;;;;;;;;;;4984228;28;20600;-44
2023/12/18 05:09:56;;;;;;;181.37;53.57;;;;;;;;;;4981340;28;20268;-44
2023/12/18 05:12:22;;;;;;;179.57;52.90;;;;;;;;;;4983661;28;20839;-44
2023/12/18 05:14:48;;;;;;;181.57;53.90;;;;;;;;;;4982066;28;20791;-44
2023/12/18 05:17:14;;;;;;;183.53;55.77;;;;;;;;;;4981530;28;20421;-44
2023/12/18 05:19:40;;;;;;;183.23;55.47;;;;;;;;;;4985350;28;20421;-44
2023/12/18 05:22:05;;;;;;;182.57;55.97;;;;;;;;;;4980933;28;20501;-44
2023/12/18 05:24:31;;;;;;;184.93;56.87;;;;;;;;;;4982273;28;20405;-44
2023/12/18 05:26:57;;;;;;;185.70;56.80;;;;;;;;;;4982010;28;20413;-44
2023/12/18 05:29:23;;;;;;;186.20;56.43;;;;;;;;;;4980598;28;20954;-44
2023/12/18 05:31:49;;;;;;;182.73;55.70;;;;;;;;;;4980544;28;20955;-43
2023/12/18 05:34:17;;;;;;;184.00;56.95;;;;;;;;;;4975500;28;20413;-44
2023/12/18 05:36:43;;;;;;;183.82;58.00;;;;;;;;;;4969058;28;20178;-44
2023/12/18 05:39:09;;;;;;;181.07;55.67;;;;;;;;;;4953539;28;20180;-44
2023/12/18 05:41:34;;;;;;;185.40;57.83;;;;;;;;;;4953589;28;20504;-45
2023/12/18 05:44:00;;;;;;;186.10;58.33;;;;;;;;;;4971105;28;20416;-44
2023/12/18 05:46:26;;;;;;;182.73;56.40;;;;;;;;;;4965602;28;20410;-44
2023/12/18 05:48:52;;;;;;;183.57;56.60;;;;;;;;;;4964358;28;20419;-44
2023/12/18 05:51:22;;;;;;;166.45;52.28;;;;;;;;;;4976106;28;20445;-44
2023/12/18 05:53:48;;;;;;;168.45;52.25;;;;;;;;;;4976864;28;20248;-44
2023/12/18 05:56:14;;;;;;;183.90;56.25;;;;;;;;;;4976742;28;20232;-44
2023/12/18 05:58:40;;;;;;;183.37;56.13;;;;;;;;;;4961052;28;20584;-44
2023/12/18 06:01:08;;;;;;;181.05;56.97;;;;;;;;;;4968277;28;20458;-44
2023/12/18 06:03:34;;;;;;;182.88;56.95;;;;;;;;;;4968943;28;20181;-44
2023/12/18 06:06:00;;;;;;;180.03;54.93;;;;;;;;;;4960872;28;20179;-44
2023/12/18 06:08:27;;;;;;;187.73;57.80;;;;;;;;;;4976290;28;20437;-44
2023/12/18 06:10:53;;;;;;;182.90;55.50;;;;;;;;;;4957402;28;20465;-44
2023/12/18 06:13:19;;;;;;;185.23;56.07;;;;;;;;;;4972000;28;20213;-44
2023/12/18 06:15:45;;;;;;;183.63;55.67;;;;;;;;;;4965079;28;20406;-44
2023/12/18 06:18:11;;;;;;;187.53;57.77;;;;;;;;;;4962610;28;20195;-44
2023/12/18 06:20:37;;;;;;;185.83;55.50;;;;;;;;;;4982395;28;20433;-43
2023/12/18 06:23:03;;;;;;;186.87;55.67;;;;;;;;;;4984923;28;20436;-44
2023/12/18 06:25:29;;;;;;;187.77;56.13;;;;;;;;;;4983976;28;20811;-44
2023/12/18 06:27:55;;;;;;;188.17;56.63;;;;;;;;;;4984016;28;20174;-44
2023/12/18 06:30:22;;;;;;;186.00;54.87;;;;;;;;;;4989036;28;20512;-43
2023/12/18 06:32:48;;;;;;;186.98;56.92;;;;;;;;;;4988013;28;20416;-43
2023/12/18 06:35:14;;;;;;;187.87;55.67;;;;;;;;;;4982592;28;20174;-44
2023/12/18 06:37:42;;;;;;;187.45;55.45;;;;;;;;;;4986969;28;20409;-44
2023/12/18 06:40:08;;;;;;;188.13;56.42;;;;;;;;;;4985628;28;20207;-44
2023/12/18 06:42:34;;;;;;;190.80;57.42;;;;;;;;;;4988133;28;20289;-43
2023/12/18 06:45:00;;;;;;;191.57;56.50;;;;;;;;;;4985190;28;20268;-44
2023/12/18 06:47:26;;;;;;;190.60;54.93;;;;;;;;;;4987462;28;20412;-44
2023/12/18 06:49:52;;;;;;;188.57;53.93;;;;;;;;;;4986640;28;20884;-44
2023/12/18 06:52:19;;;;;;;188.88;54.28;;;;;;;;;;4972761;28;20428;-43
2023/12/18 06:54:45;;;;;;;191.27;53.87;;;;;;;;;;4986921;28;20261;-44
2023/12/18 06:57:12;;;;;;;197.07;58.30;;;;;;;;;;4984665;28;20503;-44
2023/12/18 06:59:39;;;;;;;198.70;57.42;;;;;;;;;;4984661;28;20436;-44
2023/12/18 07:02:05;;;;;;;193.40;55.10;;;;;;;;;;4984906;28;20210;-44
2023/12/18 07:04:31;;;;;;;193.40;55.72;;;;;;;;;;4984268;28;20174;-44
2023/12/18 07:06:57;;;;;;;193.30;56.05;;;;;;;;;;4984461;28;20185;-44
2023/12/18 07:09:24;;;;;;;162.70;51.50;;;;;;;;;;4983097;28;20651;-43
2023/12/18 07:11:50;;;;;;;183.63;55.97;;;;;;;;;;4989397;28;20428;-43
2023/12/18 07:14:17;;;;;;;182.52;56.15;;;;;;;;;;4983227;28;20173;-43
2023/12/18 07:16:44;;;;;;;176.55;54.75;;;;;;;;;;4982458;28;20534;-44
2023/12/18 07:19:10;;;;;;;182.77;56.30;;;;;;;;;;4984147;28;20550;-44
2023/12/18 07:21:36;;;;;;;180.27;55.20;;;;;;;;;;4983214;28;20186;-43
2023/12/18 07:24:02;;;;;;;178.70;55.83;;;;;;;;;;4984290;28;20471;-44
2023/12/18 07:26:28;;;;;;;196.27;57.17;;;;;;;;;;4987566;28;20492;-44
2023/12/18 07:28:53;;;;;;;183.07;56.50;;;;;;;;;;4987039;28;20311;-43
2023/12/18 07:31:19;;;;;;;180.40;53.73;;;;;;;;;;4981341;28;20444;-43
2023/12/18 07:33:45;;;;;;;184.45;54.70;;;;;;;;;;4980322;28;20413;-43
2023/12/18 07:36:11;;;;;;;184.33;53.17;;;;;;;;;;4985405;28;20190;-44
2023/12/18 07:38:37;;;;;;;184.55;54.42;;;;;;;;;;4985905;28;20404;-44
2023/12/18 07:41:04;;;;;;;188.10;57.10;;;;;;;;;;4982291;28;20435;-44
2023/12/18 07:43:30;;;;;;;181.20;53.50;;;;;;;;;;4986097;28;20409;-44
2023/12/18 07:45:56;;;;;;;179.55;54.20;;;;;;;;;;4985508;28;20193;-44
2023/12/18 07:48:24;;;;;;;187.73;57.35;;;;;;;;;;4979582;28;20695;-45
2023/12/18 07:50:50;;;;;;;185.27;53.92;;;;;;;;;;4985837;28;20199;-43
2023/12/18 07:53:17;;;;;;;187.73;54.67;;;;;;;;;;4983870;28;20572;-44
2023/12/18 07:55:43;;;;;;;178.93;53.00;;;;;;;;;;4983389;28;20244;-44
2023/12/18 07:58:09;;;;;;;184.55;53.95;;;;;;;;;;4984510;28;20596;-44
2023/12/18 08:00:35;;;;;;;172.40;52.00;;;;;;;;;;4982539;28;20194;-44
2023/12/18 08:03:04;;;;;;;179.53;53.70;;;;;;;;;;4983512;28;20239;-44
2023/12/18 08:05:31;;;;;;;185.65;53.05;;;;;;;;;;4981809;28;20412;-44
2023/12/18 08:07:57;;;;;;;190.75;54.42;;;;;;;;;;4988220;28;20304;-44
2023/12/18 08:10:22;;;;;;;192.18;55.17;;;;;;;;;;4982316;28;20231;-44
2023/12/18 08:12:49;;;;;;;192.10;54.70;;;;;;;;;;4980941;28;20235;-44
2023/12/18 08:15:15;;;;;;;190.95;54.80;;;;;;;;;;4983396;28;20408;-44
2023/12/18 08:17:42;;;;;;;187.07;54.47;;;;;;;;;;4982151;28;20228;-44
2023/12/18 08:20:09;;;;;;;191.90;56.08;;;;;;;;;;4983710;28;20540;-44
2023/12/18 08:22:35;;;;;;;181.77;55.50;;;;;;;;;;4985655;28;20201;-43
2023/12/18 08:25:02;;;;;;;203.52;58.35;;;;;;;;;;4986349;28;20173;-44
2023/12/18 08:27:32;;;;;;;194.20;56.90;;;;;;;;;;4982062;28;20177;-44
2023/12/18 08:29:58;;;;;;;196.45;55.22;;;;;;;;;;4978146;28;20205;-44
2023/12/18 08:32:24;;;;;;;195.23;54.30;;;;;;;;;;4985099;28;20260;-44
2023/12/18 08:34:51;;;;;;;202.97;56.03;;;;;;;;;;4983576;28;20576;-44
2023/12/18 08:37:17;;;;;;;200.73;55.53;;;;;;;;;;4973812;28;20790;-44
2023/12/18 08:39:43;;;;;;;196.05;55.17;;;;;;;;;;4981069;28;20677;-44
2023/12/18 08:42:09;;;;;;;197.43;54.70;;;;;;;;;;4984415;28;20204;-44
2023/12/18 08:44:35;;;;;;;201.75;54.63;;;;;;;;;;4980794;28;20412;-43
2023/12/18 08:47:02;;;;;;;180.10;60.30;;;;;;;;;;4983584;28;20181;-43
2023/12/18 08:49:28;;;;;;;202.00;54.70;;;;;;;;;;4984252;28;20920;-44
2023/12/18 08:51:54;;;;;;;199.50;54.35;;;;;;;;;;4981395;28;20577;-44
2023/12/18 08:54:20;;;;;;;199.33;58.90;;;;;;;;;;4983987;28;20182;-44
2023/12/18 08:56:47;;;;;;;202.45;57.70;;;;;;;;;;4981415;28;20420;-43
2023/12/18 08:59:13;;;;;;;203.38;59.33;;;;;;;;;;4982505;28;20178;-44
2023/12/18 09:01:39;;;;;;;200.90;56.65;;;;;;;;;;4978560;28;20577;-43
2023/12/18 09:04:06;;;;;;;198.27;54.80;;;;;;;;;;4985830;28;20186;-44
2023/12/18 09:06:35;;;;;;;199.90;58.10;;;;;;;;;;4984460;28;20411;-43
2023/12/18 09:09:01;;;;;;;202.98;58.40;;;;;;;;;;4982110;28;20173;-44
2023/12/18 09:11:29;;;;;;;197.18;55.90;;;;;;;;;;4981011;28;20325;-44
2023/12/18 09:13:55;;;;;;;199.32;53.47;;;;;;;;;;4981474;28;20592;-43
2023/12/18 09:16:23;;;;;;;173.43;51.47;;;;;;;;;;4984469;28;20177;-44
2023/12/18 09:18:49;;;;;;;194.55;53.97;;;;;;;;;;4982038;28;20262;-43
2023/12/18 09:21:15;;;;;;;198.95;55.40;;;;;;;;;;4985450;28;20681;-43
2023/12/18 09:23:41;;;;;;;199.83;56.27;;;;;;;;;;4975828;28;20187;-43
2023/12/18 09:26:07;;;;;;;200.05;56.28;;;;;;;;;;4965275;28;20851;-44
2023/12/18 09:28:33;;;;;;;200.10;58.65;;;;;;;;;;4956053;28;20262;-44
2023/12/18 09:30:59;;;;;;;198.55;55.28;;;;;;;;;;4972698;28;20197;-43
2023/12/18 09:33:25;;;;;;;199.50;56.97;;;;;;;;;;4954671;28;20175;-44
2023/12/18 09:35:51;;;;;;;199.77;57.03;;;;;;;;;;4967840;28;20414;-44
2023/12/18 09:38:17;;;;;;;199.03;56.50;;;;;;;;;;4962526;28;20270;-44
2023/12/18 09:40:44;;;;;;;196.48;54.50;;;;;;;;;;4959693;28;20448;-44
2023/12/18 09:43:15;;;;;;;198.77;56.55;;;;;;;;;;4970311;28;20189;-44
2023/12/18 09:45:42;;;;;;;200.02;57.10;;;;;;;;;;4953741;28;20635;-43
2023/12/18 09:48:08;;;;;;;202.00;56.17;;;;;;;;;;4972067;28;20211;-44
2023/12/18 09:50:34;;;;;;;199.10;56.75;;;;;;;;;;4957720;28;20203;-44
2023/12/18 09:53:07;;;;;;;199.53;56.23;;;;;;;;;;4964150;28;20178;-44
2023/12/18 09:55:33;;;;;;;200.38;56.85;;;;;;;;;;4971791;28;20783;-44
2023/12/18 09:58:00;;;;;;;198.57;57.13;;;;;;;;;;4972314;28;20184;-44
2023/12/18 10:00:26;;;;;;;200.90;57.58;;;;;;;;;;4972251;28;20431;-44
2023/12/18 10:02:52;;;;;;;199.15;58.25;;;;;;;;;;4953455;28;20219;-44
2023/12/18 10:05:18;;;;;;;198.88;55.67;;;;;;;;;;4953813;28;20213;-44
2023/12/18 10:07:45;;;;;;;199.17;55.20;;;;;;;;;;4964783;28;20648;-44
2023/12/18 10:10:11;;;;;;;200.52;55.25;;;;;;;;;;4964817;28;20466;-43
2023/12/18 10:12:38;;;;;;;200.30;57.60;;;;;;;;;;4956803;28;20180;-44
2023/12/18 10:15:06;;;;;;;199.43;56.90;;;;;;;;;;4972733;28;20409;-44
2023/12/18 10:17:33;;;;;;;197.25;55.90;;;;;;;;;;4972308;28;20183;-44
2023/12/18 10:20:02;;;;;;;198.05;56.78;;;;;;;;;;4956733;28;20210;-44
2023/12/18 10:22:28;;;;;;;198.38;56.70;;;;;;;;;;4964856;28;20238;-44
2023/12/18 10:24:57;;;;;;;197.45;56.45;;;;;;;;;;4964694;28;20187;-44
2023/12/18 10:27:23;;;;;;;199.20;58.78;;;;;;;;;;4957366;28;20179;-44
2023/12/18 10:29:49;;;;;;;198.43;59.22;;;;;;;;;;4973686;28;20639;-44
2023/12/18 10:32:15;;;;;;;195.80;56.47;;;;;;;;;;4956810;28;20172;-44
2023/12/18 10:34:41;;;;;;;195.47;54.87;;;;;;;;;;4972489;28;20182;-44
2023/12/18 10:37:08;;;;;;;194.18;56.30;;;;;;;;;;4964184;28;20433;-43
2023/12/18 10:39:37;;;;;;;195.35;56.60;;;;;;;;;;4964070;28;20179;-44
2023/12/18 10:42:06;;;;;;;194.75;58.58;;;;;;;;;;4971509;28;20192;-44
2023/12/18 10:44:32;;;;;;;192.45;54.50;;;;;;;;;;4956944;28;20168;-44
2023/12/18 10:46:59;;;;;;;192.55;54.90;;;;;;;;;;4969534;28;20188;-44
2023/12/18 10:49:27;;;;;;;190.15;60.58;;;;;;;;;;4972686;28;20195;-43
2023/12/18 10:51:54;;;;;;;193.35;57.38;;;;;;;;;;4974871;28;20563;-44
2023/12/18 10:54:20;;;;;;;193.07;58.13;;;;;;;;;;4972206;28;20212;-43
2023/12/18 10:56:46;;;;;;;197.40;56.63;;;;;;;;;;4975324;28;20207;-43
2023/12/18 10:59:13;;;;;;;197.70;57.60;;;;;;;;;;4974380;28;20190;-44
2023/12/18 11:01:39;;;;;;;200.90;59.75;;;;;;;;;;4963846;28;20292;-44
2023/12/18 11:04:06;;;;;;;196.50;57.33;;;;;;;;;;4959105;28;20583;-44
2023/12/18 11:06:32;;;;;;;196.73;58.28;;;;;;;;;;4967277;28;20310;-44
2023/12/18 11:08:59;;;;;;;190.30;53.83;;;;;;;;;;4966189;28;20235;-44
2023/12/18 11:11:26;;;;;;;196.02;57.58;;;;;;;;;;4959771;28;20198;-43
2023/12/18 11:14:11;;;;;;;196.80;57.70;;;;;;;;;;4974339;28;20183;-44
2023/12/18 11:16:46;;;;;;;194.65;55.67;;;;;;;;;;4954619;28;20191;-44
2023/12/18 11:19:27;;;;;;;194.50;54.40;;;;;;;;;;4955681;28;20179;-43
2023/12/18 11:21:54;;;;;;;192.25;53.13;;;;;;;;;;4973271;28;20286;-43
2023/12/18 11:24:20;;;;;;;197.18;56.40;;;;;;;;;;4961180;28;20179;-44
2023/12/18 11:26:46;;;;;;;192.87;53.43;;;;;;;;;;4965651;28;20322;-43
2023/12/18 11:29:31;;;;;;;194.15;53.75;;;;;;;;;;4968795;28;20826;-43
2023/12/18 11:31:58;;;;;;;194.85;54.70;;;;;;;;;;4960068;28;20206;-44
2023/12/18 11:34:24;;;;;;;196.30;54.97;;;;;;;;;;4974347;28;20224;-44
2023/12/18 11:36:50;;;;;;;192.17;53.07;;;;;;;;;;4955886;28;20179;-44
2023/12/18 11:39:16;;;;;;;194.25;54.95;;;;;;;;;;4971331;28;20779;-44
2023/12/18 11:41:47;;;;;;;194.02;54.30;;;;;;;;;;4961817;28;20616;-43
2023/12/18 11:44:14;;;;;;;193.05;54.65;;;;;;;;;;4964223;28;20183;-44
2023/12/18 11:46:41;;;;;;;195.48;56.63;;;;;;;;;;4969784;28;20182;-44
2023/12/18 11:49:08;;;;;;;191.15;55.17;;;;;;;;;;4956002;28;20184;-44
2023/12/18 11:51:34;;;;;;;196.52;55.75;;;;;;;;;;4974573;28;20291;-44
2023/12/18 11:54:03;;;;;;;196.15;55.83;;;;;;;;;;4958085;28;20182;-44
2023/12/18 11:56:42;;;;;;;193.45;54.50;;;;;;;;;;4968033;28;20670;-44
2023/12/18 11:59:10;;;;;;;197.85;55.65;;;;;;;;;;4962692;28;20191;-44
2023/12/18 12:01:39;;;;;;;198.27;54.80;;;;;;;;;;4972535;28;20579;-44
2023/12/18 12:04:05;;;;;;;201.98;56.63;;;;;;;;;;4971121;28;20173;-44
2023/12/18 12:06:33;;;;;;;201.18;55.75;;;;;;;;;;4974597;28;20255;-44
2023/12/18 12:08:59;;;;;;;203.80;55.65;;;;;;;;;;4955114;28;20172;-44
2023/12/18 12:11:25;;;;;;;200.52;56.13;;;;;;;;;;4969927;28;20221;-44
2023/12/18 12:13:55;;;;;;;203.17;57.03;;;;;;;;;;4963112;28;20199;-44
2023/12/18 12:16:20;;;;;;;204.52;57.75;;;;;;;;;;4962308;28;20569;-44
2023/12/18 12:18:47;;;;;;;200.48;55.97;;;;;;;;;;4970262;28;20685;-44
2023/12/18 12:21:14;;;;;;;203.13;57.20;;;;;;;;;;4954661;28;20204;-44
2023/12/18 12:23:40;;;;;;;202.05;55.42;;;;;;;;;;4973761;28;20643;-44
2023/12/18 12:26:06;;;;;;;202.27;56.60;;;;;;;;;;4958777;28;20176;-44
2023/12/18 12:28:32;;;;;;;211.90;62.60;;;;;;;;;;4960477;28;20446;-43
2023/12/18 12:30:59;;;;;;;204.47;56.27;;;;;;;;;;4971129;28;20263;-44
2023/12/18 12:33:25;;;;;;;205.90;57.83;;;;;;;;;;4970210;28;20415;-44
2023/12/18 12:35:53;;;;;;;206.80;57.80;;;;;;;;;;4952998;28;20177;-44
2023/12/18 12:38:19;;;;;;;204.77;57.75;;;;;;;;;;4973172;28;20249;-45
2023/12/18 12:40:45;;;;;;;208.23;58.30;;;;;;;;;;4957759;28;20255;-43
2023/12/18 12:43:12;;;;;;;203.25;55.72;;;;;;;;;;4965162;28;20178;-44
2023/12/18 12:45:38;;;;;;;204.80;56.78;;;;;;;;;;4966318;28;20189;-44
2023/12/18 12:48:06;;;;;;;205.57;58.45;;;;;;;;;;4957543;28;20233;-44
2023/12/18 12:50:34;;;;;;;206.10;58.10;;;;;;;;;;4973376;28;20210;-44
2023/12/18 12:53:00;;;;;;;204.07;58.15;;;;;;;;;;4954461;28;20191;-44
2023/12/18 12:55:26;;;;;;;203.07;55.25;;;;;;;;;;4969433;28;20178;-44
2023/12/18 12:57:53;;;;;;;204.68;56.78;;;;;;;;;;4972860;28;20194;-44
2023/12/18 13:00:20;;;;;;;203.10;56.97;;;;;;;;;;4965703;28;20197;-44
2023/12/18 13:02:46;;;;;;;205.02;58.97;;;;;;;;;;4957280;28;20203;-44
2023/12/18 13:05:12;;;;;;;206.30;58.72;;;;;;;;;;4969510;28;20226;-44
2023/12/18 13:07:38;;;;;;;203.17;57.13;;;;;;;;;;4968344;28;20647;-44
2023/12/18 13:10:04;;;;;;;207.27;59.28;;;;;;;;;;4972442;28;20431;-43
2023/12/18 13:12:30;;;;;;;204.18;56.30;;;;;;;;;;4962070;28;20241;-44
2023/12/18 13:14:56;;;;;;;205.57;57.13;;;;;;;;;;4960642;28;20202;-44
2023/12/18 13:17:22;;;;;;;205.65;56.55;;;;;;;;;;4970083;28;20956;-44
2023/12/18 13:19:48;;;;;;;203.55;56.88;;;;;;;;;;4953497;28;20259;-44
2023/12/18 13:22:14;;;;;;;201.57;57.37;;;;;;;;;;4971946;28;20208;-44
2023/12/18 13:24:40;;;;;;;203.60;59.20;;;;;;;;;;4958505;28;20472;-44
2023/12/18 13:27:06;;;;;;;199.17;56.20;;;;;;;;;;4963847;28;20469;-43
2023/12/18 13:29:35;;;;;;;199.30;55.37;;;;;;;;;;4966230;28;20419;-44
2023/12/18 13:32:02;;;;;;;196.90;55.97;;;;;;;;;;4955469;28;20505;-44
2023/12/18 13:34:28;;;;;;;197.88;56.45;;;;;;;;;;4971470;28;20265;-44
2023/12/18 13:36:55;;;;;;;198.90;58.10;;;;;;;;;;4954270;28;20223;-44
2023/12/18 13:39:21;;;;;;;199.90;56.30;;;;;;;;;;4966880;28;20175;-44
2023/12/18 13:41:47;;;;;;;202.93;59.20;;;;;;;;;;4961976;28;20243;-44
2023/12/18 13:59:48;;;;;;;193.18;57.22;;;;;;;;;;5342732;23;20301;-42
2023/12/18 14:02:14;;;;;;;189.90;52.97;;;;;;;;;;4972092;28;20246;-42
2023/12/18 14:04:40;;;;;;;190.17;53.10;;;;;;;;;;4973812;28;20414;-42
2023/12/18 14:07:06;;;;;;;191.43;53.90;;;;;;;;;;4976548;28;20433;-42
2023/12/18 14:09:32;;;;;;;194.30;55.30;;;;;;;;;;4976648;28;20438;-42
2023/12/18 14:11:58;;;;;;;190.50;53.47;;;;;;;;;;4976312;28;20191;-42
2023/12/18 14:14:24;;;;;;;188.47;52.97;;;;;;;;;;4976725;28;20192;-42
2023/12/18 14:16:49;;;;;;;190.37;53.50;;;;;;;;;;4977452;28;20423;-42